createdAt,value
2022-09-28T00:01:52.661Z,1.30
2022-09-28T00:04:20.490Z,0.90
2022-09-28T00:06:48.924Z,0.93
2022-09-28T00:09:17.228Z,0.77
2022-09-28T00:11:46.946Z,1.10
2022-09-28T00:14:14.375Z,0.80
2022-09-28T00:16:43.752Z,1.00
2022-09-28T00:19:12.475Z,0.80
2022-09-28T00:21:41.366Z,0.70
2022-09-28T00:24:12.670Z,0.82
2022-09-28T00:26:42.629Z,0.77
2022-09-28T00:29:19.251Z,1.70
2022-09-28T00:31:46.741Z,0.60
2022-09-28T00:34:14.486Z,1.20
2022-09-28T00:36:45.726Z,1.48
2022-09-28T00:39:14.777Z,1.17
2022-09-28T00:41:42.860Z,0.85
2022-09-28T00:44:31.781Z,0.82
2022-09-28T00:47:07.343Z,0.88
2022-09-28T00:49:43.392Z,1.13
2022-09-28T00:52:14.682Z,0.55
2022-09-28T00:54:45.893Z,1.30
2022-09-28T00:57:15.115Z,1.17
2022-09-28T00:59:43.147Z,0.57
2022-09-28T01:02:10.764Z,0.70
2022-09-28T01:04:39.151Z,0.60
2022-09-28T01:07:08.938Z,0.70
2022-09-28T01:09:39.198Z,1.50
2022-09-28T01:12:07.097Z,0.60
2022-09-28T01:14:34.668Z,0.70
2022-09-28T01:17:15.471Z,1.45
2022-09-28T01:20:06.582Z,0.80
2022-09-28T01:22:35.166Z,1.00
2022-09-28T01:25:25.157Z,0.70
2022-09-28T01:28:13.867Z,1.25
2022-09-28T01:30:49.517Z,0.73
2022-09-28T01:33:24.867Z,0.80
2022-09-28T01:36:06.805Z,0.80
2022-09-28T01:38:44.382Z,0.65
2022-09-28T01:41:13.239Z,1.20
2022-09-28T01:43:45.948Z,0.93
2022-09-28T01:46:33.001Z,0.90
2022-09-28T01:49:09.065Z,0.75
2022-09-28T01:51:48.542Z,0.68
2022-09-28T01:54:34.278Z,0.55
2022-09-28T01:57:09.601Z,0.65
2022-09-28T01:59:42.046Z,0.63
2022-09-28T02:02:22.244Z,0.45
2022-09-28T02:04:55.628Z,0.40
2022-09-28T02:07:54.829Z,0.50
2022-09-28T02:10:31.226Z,0.77
2022-09-28T02:13:08.169Z,0.95
2022-09-28T02:15:40.958Z,0.70
2022-09-28T02:18:09.310Z,0.40
2022-09-28T02:20:42.842Z,0.47
2022-09-28T02:23:10.487Z,0.55
2022-09-28T02:25:45.969Z,0.40
2022-09-28T02:28:14.001Z,1.08
2022-09-28T02:30:44.018Z,0.50
2022-09-28T02:33:32.070Z,0.50
2022-09-28T02:36:00.911Z,0.50
2022-09-28T02:38:30.870Z,0.50
2022-09-28T02:41:14.795Z,0.50
2022-09-28T02:44:29.549Z,0.40
2022-09-28T02:47:42.030Z,0.50
2022-09-28T02:50:38.826Z,0.77
2022-09-28T02:53:31.189Z,0.50
2022-09-28T02:56:40.072Z,0.40
2022-09-28T02:59:32.171Z,0.50
2022-09-28T03:02:07.942Z,0.50
2022-09-28T03:04:35.913Z,0.95
2022-09-28T03:07:30.944Z,0.90
2022-09-28T03:10:23.391Z,0.60
2022-09-28T03:12:51.972Z,0.43
2022-09-28T03:15:30.891Z,0.50
2022-09-28T03:17:58.843Z,0.63
2022-09-28T03:20:27.604Z,0.70
2022-09-28T03:23:22.837Z,0.50
2022-09-28T03:25:42.399Z,0.32
2022-09-28T03:28:09.543Z,0.80
2022-09-28T03:30:39.718Z,0.50
2022-09-28T03:33:07.130Z,0.30
2022-09-28T03:35:34.487Z,0.40
2022-09-28T03:38:01.684Z,0.40
2022-09-28T03:40:31.292Z,0.30
2022-09-28T03:43:00.108Z,0.50
2022-09-28T03:45:27.366Z,0.50
2022-09-28T03:47:54.902Z,0.40
2022-09-28T03:50:22.065Z,0.50
2022-09-28T03:52:49.330Z,0.35
2022-09-28T03:55:16.756Z,2.25
2022-09-28T03:57:44.018Z,0.40
2022-09-28T04:00:11.740Z,0.50
2022-09-28T04:02:41.704Z,0.50
2022-09-28T04:05:09.442Z,0.30
2022-09-28T04:07:38.112Z,1.20
2022-09-28T04:10:05.710Z,0.50
2022-09-28T04:12:32.989Z,0.50
2022-09-28T04:15:00.157Z,0.50
2022-09-28T04:17:27.518Z,0.30
2022-09-28T04:19:55.519Z,0.40
2022-09-28T04:22:41.167Z,0.50
2022-09-28T04:25:09.226Z,0.38
2022-09-28T04:27:54.953Z,0.47
2022-09-28T04:30:22.394Z,0.40
2022-09-28T04:32:49.853Z,0.40
2022-09-28T04:35:17.887Z,0.30
2022-09-28T04:37:46.968Z,0.30
2022-09-28T04:40:14.207Z,0.40
2022-09-28T04:42:41.615Z,0.30
2022-09-28T04:45:09.420Z,0.40
2022-09-28T04:47:39.715Z,0.47
2022-09-28T04:50:19.235Z,0.50
2022-09-28T04:53:04.830Z,0.50
2022-09-28T04:55:32.722Z,0.40
2022-09-28T04:58:03.423Z,0.30
2022-09-28T05:00:33.211Z,0.50
2022-09-28T05:03:29.570Z,0.50
2022-09-28T05:06:19.282Z,0.32
2022-09-28T05:08:48.364Z,0.40
2022-09-28T05:11:16.564Z,0.40
2022-09-28T05:13:45.661Z,0.40
2022-09-28T05:16:16.287Z,0.30
2022-09-28T05:19:10.662Z,0.40
2022-09-28T05:21:38.344Z,0.50
2022-09-28T05:24:07.749Z,0.55
2022-09-28T05:26:37.694Z,0.30
2022-09-28T05:29:06.592Z,0.40
2022-09-28T05:31:52.113Z,0.45
2022-09-28T05:34:34.705Z,0.30
2022-09-28T05:37:01.855Z,0.30
2022-09-28T05:39:30.721Z,0.45
2022-09-28T05:41:58.074Z,1.20
2022-09-28T05:44:25.985Z,0.30
2022-09-28T05:46:54.856Z,0.45
2022-09-28T05:49:23.219Z,0.77
2022-09-28T05:51:50.466Z,0.60
2022-09-28T05:54:18.032Z,0.40
2022-09-28T05:56:47.166Z,0.40
2022-09-28T05:59:14.630Z,0.70
2022-09-28T06:01:42.219Z,0.52
2022-09-28T06:04:11.220Z,0.60
2022-09-28T06:06:38.920Z,0.60
2022-09-28T06:09:06.225Z,0.60
2022-09-28T06:11:33.426Z,0.60
2022-09-28T06:14:06.423Z,0.55
2022-09-28T06:16:35.080Z,0.77
2022-09-28T06:19:02.533Z,0.60
2022-09-28T06:21:58.349Z,0.50
2022-09-28T06:24:26.813Z,0.70
2022-09-28T06:26:54.033Z,0.50
2022-09-28T06:29:22.250Z,0.40
2022-09-28T06:31:49.496Z,0.47
2022-09-28T06:34:19.190Z,0.50
2022-09-28T06:36:46.658Z,0.60
2022-09-28T06:39:14.064Z,0.52
2022-09-28T06:41:41.889Z,0.70
2022-09-28T06:44:17.333Z,0.40
2022-09-28T06:47:07.716Z,0.60
2022-09-28T06:49:55.434Z,0.70
2022-09-28T06:52:41.190Z,1.42
2022-09-28T06:55:29.397Z,0.47
2022-09-28T06:58:02.921Z,0.70
2022-09-28T07:00:34.132Z,0.52
2022-09-28T07:03:07.446Z,1.65
2022-09-28T07:05:56.556Z,1.35
2022-09-28T07:08:39.675Z,1.13
2022-09-28T07:11:42.206Z,0.60
2022-09-28T07:14:40.554Z,0.90
2022-09-28T07:17:13.959Z,0.85
2022-09-28T07:19:42.656Z,1.33
2022-09-28T07:22:18.855Z,1.30
2022-09-28T07:24:48.710Z,0.70
2022-09-28T07:27:37.150Z,0.82
2022-09-28T07:30:33.314Z,1.08
2022-09-28T07:33:32.810Z,0.70
2022-09-28T07:36:17.969Z,0.73
2022-09-28T07:38:45.386Z,0.93
2022-09-28T07:41:12.614Z,0.95
2022-09-28T07:43:44.466Z,1.13
2022-09-28T07:46:12.542Z,1.27
2022-09-28T07:48:50.593Z,0.93
2022-09-28T07:51:25.808Z,1.10
2022-09-28T07:54:11.304Z,1.27
2022-09-28T07:56:56.875Z,1.10
2022-09-28T07:59:47.794Z,1.42
2022-09-28T08:02:41.523Z,2.03
2022-09-28T08:05:10.073Z,1.42
2022-09-28T08:07:38.399Z,2.45
2022-09-28T08:10:09.300Z,1.50
2022-09-28T08:13:06.411Z,1.52
2022-09-28T08:15:54.762Z,1.15
2022-09-28T08:18:44.702Z,1.45
2022-09-28T08:21:30.239Z,1.25
2022-09-28T08:23:57.584Z,1.67
2022-09-28T08:26:25.187Z,1.45
2022-09-28T08:28:52.720Z,1.17
2022-09-28T08:31:38.212Z,1.67
2022-09-28T08:34:10.984Z,2.72
2022-09-28T08:37:16.733Z,1.35
2022-09-28T08:40:02.169Z,1.50
2022-09-28T08:43:14.451Z,1.50
2022-09-28T08:45:41.671Z,1.60
2022-09-28T08:49:01.104Z,1.40
2022-09-28T08:52:04.102Z,1.45
2022-09-28T08:54:54.685Z,1.80
2022-09-28T08:57:42.001Z,2.90
2022-09-28T09:00:32.310Z,2.00
2022-09-28T09:03:03.081Z,1.98
2022-09-28T09:06:08.662Z,2.10
2022-09-28T09:08:56.108Z,2.10
2022-09-28T09:11:43.219Z,2.20
2022-09-28T09:14:47.962Z,1.40
2022-09-28T09:17:37.022Z,2.67
2022-09-28T09:20:56.995Z,1.70
2022-09-28T09:23:53.113Z,1.98
2022-09-28T09:26:26.230Z,1.13
2022-09-28T09:29:21.873Z,1.23
2022-09-28T09:32:03.065Z,1.90
2022-09-28T09:34:48.948Z,0.80
2022-09-28T09:37:37.724Z,1.50
2022-09-28T09:40:57.277Z,1.40
2022-09-28T09:43:47.526Z,0.95
2022-09-28T09:46:44.302Z,1.00
2022-09-28T09:49:34.310Z,1.08
2022-09-28T09:52:05.539Z,1.08
2022-09-28T09:54:41.479Z,0.70
2022-09-28T09:57:18.036Z,0.95
2022-09-28T09:59:51.849Z,0.63
2022-09-28T10:02:44.174Z,0.80
2022-09-28T10:05:30.801Z,1.20
2022-09-28T10:08:16.244Z,1.17
2022-09-28T10:10:52.725Z,1.88
2022-09-28T10:13:21.213Z,0.80
2022-09-28T10:15:51.435Z,1.00
2022-09-28T10:18:37.812Z,0.77
2022-09-28T10:21:24.333Z,1.23
2022-09-28T10:26:37.643Z,0.98
2022-09-28T10:29:33.605Z,0.70
2022-09-28T10:32:00.990Z,0.47
2022-09-28T10:34:35.596Z,0.50
2022-09-28T10:39:56.386Z,0.32
2022-09-28T10:42:33.760Z,0.40
2022-09-28T10:45:16.384Z,0.30
2022-09-28T10:47:44.947Z,0.30
2022-09-28T10:50:26.553Z,0.20
2022-09-28T10:53:20.749Z,0.30
2022-09-28T10:56:22.718Z,0.50
2022-09-28T10:58:59.130Z,0.30
2022-09-28T11:01:41.519Z,0.50
2022-09-28T11:04:22.050Z,0.35
2022-09-28T11:06:51.411Z,0.20
2022-09-28T11:09:41.386Z,0.30
2022-09-28T11:12:15.807Z,0.22
2022-09-28T11:14:43.870Z,0.20
2022-09-28T11:20:19.946Z,0.30
2022-09-28T11:22:52.618Z,0.30
2022-09-28T11:25:27.107Z,0.20
2022-09-28T11:27:54.387Z,0.30
2022-09-28T11:30:31.190Z,0.10
2022-09-28T11:33:33.806Z,0.20
2022-09-28T11:36:42.238Z,0.20
2022-09-28T11:39:28.924Z,0.13
2022-09-28T11:42:21.479Z,0.30
2022-09-28T11:44:51.311Z,0.30
2022-09-28T11:47:20.548Z,0.28
2022-09-28T11:50:00.435Z,0.20
2022-09-28T11:52:50.575Z,0.65
2022-09-28T11:55:21.813Z,0.30
2022-09-28T11:58:14.956Z,0.20
2022-09-28T12:01:08.398Z,0.20
2022-09-28T12:04:00.545Z,0.20
2022-09-28T12:06:35.790Z,0.28
2022-09-28T12:09:13.707Z,0.20
2022-09-28T12:12:01.700Z,0.30
2022-09-28T12:15:21.318Z,0.40
2022-09-28T12:17:54.327Z,0.20
2022-09-28T12:20:33.149Z,0.30
2022-09-28T12:23:00.348Z,0.25
2022-09-28T12:25:31.812Z,0.20
2022-09-28T12:28:05.700Z,0.22
2022-09-28T12:30:40.738Z,0.30
2022-09-28T12:33:12.263Z,0.38
2022-09-28T12:35:48.405Z,0.30
2022-09-28T12:39:21.713Z,0.30
2022-09-28T12:41:55.925Z,0.40
2022-09-28T12:44:41.558Z,0.38
2022-09-28T12:47:57.305Z,0.30
2022-09-28T12:50:43.293Z,0.35
2022-09-28T12:53:44.692Z,0.40
2022-09-28T12:56:22.172Z,0.30
2022-09-28T12:59:15.572Z,0.40
2022-09-28T13:02:21.177Z,0.50
2022-09-28T13:05:05.010Z,0.32
2022-09-28T13:07:54.009Z,0.55
2022-09-28T13:10:42.839Z,0.32
2022-09-28T13:13:38.141Z,0.40
2022-09-28T13:19:19.262Z,0.73
2022-09-28T13:21:52.389Z,0.20
2022-09-28T13:24:34.060Z,0.45
2022-09-28T13:27:30.226Z,0.35
2022-09-28T13:30:01.219Z,0.17
2022-09-28T13:32:31.568Z,0.20
2022-09-28T13:35:02.091Z,0.57
2022-09-28T13:37:29.751Z,0.50
2022-09-28T13:40:05.924Z,0.40
2022-09-28T13:42:45.312Z,0.40
2022-09-28T13:45:21.660Z,0.40
2022-09-28T13:47:51.853Z,0.30
2022-09-28T13:50:25.703Z,0.40
2022-09-28T13:53:04.134Z,0.20
2022-09-28T13:55:37.188Z,0.40
2022-09-28T13:58:12.640Z,0.30
2022-09-28T14:01:07.698Z,0.20
2022-09-28T14:04:12.308Z,0.20
2022-09-28T14:06:57.100Z,0.20
2022-09-28T14:09:24.190Z,0.43
2022-09-28T14:12:00.321Z,0.20
2022-09-28T14:14:45.895Z,0.22
2022-09-28T14:17:22.301Z,0.20
2022-09-28T14:20:23.531Z,0.30
2022-09-28T14:23:02.708Z,0.35
2022-09-28T14:25:59.920Z,0.20
2022-09-28T14:28:54.667Z,0.90
2022-09-28T14:31:28.510Z,0.20
2022-09-28T14:34:01.463Z,0.30
2022-09-28T14:36:59.351Z,0.38
2022-09-28T14:39:51.443Z,0.30
2022-09-28T14:42:27.916Z,0.20
2022-09-28T14:45:06.784Z,0.20
2022-09-28T14:47:42.778Z,0.20
2022-09-28T14:50:26.853Z,0.30
2022-09-28T14:53:05.028Z,0.20
2022-09-28T14:55:50.379Z,0.30
2022-09-28T14:58:23.695Z,0.20
2022-09-28T15:01:00.130Z,0.40
2022-09-28T15:03:31.166Z,0.20
2022-09-28T15:05:58.678Z,0.20
2022-09-28T15:08:39.592Z,0.20
2022-09-28T15:11:15.155Z,0.30
2022-09-28T15:13:43.001Z,0.20
2022-09-28T15:16:14.069Z,0.25
2022-09-28T15:19:04.489Z,0.57
2022-09-28T15:21:36.592Z,0.30
2022-09-28T15:24:23.433Z,0.28
2022-09-28T15:26:50.644Z,0.20
2022-09-28T15:29:19.721Z,0.10
2022-09-28T15:31:49.943Z,0.20
2022-09-28T15:34:52.844Z,0.40
2022-09-28T15:37:22.244Z,0.20
2022-09-28T15:39:54.891Z,0.40
2022-09-28T15:42:22.908Z,0.52
2022-09-28T15:45:07.956Z,0.15
2022-09-28T15:47:36.273Z,0.30
2022-09-28T15:50:06.554Z,0.30
2022-09-28T15:53:03.236Z,0.20
2022-09-28T15:55:37.059Z,0.25
2022-09-28T15:58:22.750Z,0.30
2022-09-28T16:01:12.081Z,0.40
2022-09-28T16:03:39.589Z,0.20
2022-09-28T16:06:11.176Z,0.20
2022-09-28T16:08:38.410Z,0.20
2022-09-28T16:11:15.327Z,0.65
2022-09-28T16:14:08.953Z,0.20
2022-09-28T16:16:50.464Z,0.20
2022-09-28T16:19:28.427Z,0.28
2022-09-28T16:21:57.977Z,0.20
2022-09-28T16:24:38.430Z,0.20
2022-09-28T16:27:09.021Z,0.20
2022-09-28T16:29:42.157Z,0.20
2022-09-28T16:32:41.768Z,0.10
2022-09-28T16:35:18.877Z,0.10
2022-09-28T16:37:57.403Z,0.68
2022-09-28T16:40:24.983Z,0.20
2022-09-28T16:42:54.801Z,0.52
2022-09-28T16:45:26.211Z,0.22
2022-09-28T16:47:56.928Z,0.10
2022-09-28T16:50:26.021Z,0.30
2022-09-28T16:53:33.853Z,0.10
2022-09-28T16:56:02.572Z,0.30
2022-09-28T16:58:31.389Z,0.10
2022-09-28T17:00:59.315Z,0.20
2022-09-28T17:03:27.636Z,0.30
2022-09-28T17:05:55.577Z,0.20
2022-09-28T17:08:25.005Z,0.20
2022-09-28T17:11:18.015Z,0.30
2022-09-28T17:13:47.240Z,0.30
2022-09-28T17:16:21.037Z,0.30
2022-09-28T17:18:52.626Z,0.50
2022-09-28T17:21:20.812Z,0.57
2022-09-28T17:23:49.860Z,0.80
2022-09-28T17:26:36.176Z,0.70
2022-09-28T17:29:03.798Z,0.90
2022-09-28T17:31:31.082Z,0.90
2022-09-28T17:33:58.535Z,0.80
2022-09-28T17:36:27.044Z,0.90
2022-09-28T17:38:54.414Z,0.88
2022-09-28T17:41:21.686Z,0.88
2022-09-28T17:43:49.489Z,1.00
2022-09-28T17:46:37.420Z,0.85
2022-09-28T17:49:06.577Z,0.50
2022-09-28T17:51:37.655Z,0.60
2022-09-28T17:54:07.033Z,0.85
2022-09-28T17:56:35.467Z,0.80
2022-09-28T17:59:06.269Z,0.50
2022-09-28T18:01:34.817Z,0.70
2022-09-28T18:04:05.035Z,0.50
2022-09-28T18:06:37.270Z,0.60
2022-09-28T18:09:05.337Z,0.65
2022-09-28T18:11:33.835Z,1.38
2022-09-28T18:14:01.515Z,2.25
2022-09-28T18:16:29.263Z,1.80
2022-09-28T18:18:56.737Z,3.30
2022-09-28T18:21:23.991Z,3.00
2022-09-28T18:23:51.520Z,2.40
2022-09-28T18:26:21.510Z,1.80
2022-09-28T18:28:48.790Z,1.33
2022-09-28T18:31:19.177Z,1.27
2022-09-28T18:33:48.382Z,1.52
2022-09-28T18:36:15.734Z,1.05
2022-09-28T18:38:43.063Z,0.90
2022-09-28T18:41:14.524Z,1.00
2022-09-28T18:43:43.291Z,1.17
2022-09-28T18:46:11.908Z,0.80
2022-09-28T18:48:40.681Z,0.70
2022-09-28T18:51:12.038Z,0.90
2022-09-28T18:53:40.197Z,0.90
2022-09-28T18:56:09.511Z,0.93
2022-09-28T18:58:38.544Z,0.68
2022-09-28T19:01:28.863Z,0.90
2022-09-28T19:04:01.954Z,0.80
2022-09-28T19:06:29.889Z,1.13
2022-09-28T19:08:57.608Z,1.33
2022-09-28T19:11:26.332Z,1.42
2022-09-28T19:13:54.985Z,1.30
2022-09-28T19:16:25.049Z,1.52
2022-09-28T19:18:53.817Z,1.40
2022-09-28T19:21:21.558Z,1.40
2022-09-28T19:23:49.812Z,1.98
2022-09-28T19:26:25.544Z,2.35
2022-09-28T19:28:53.846Z,1.90
2022-09-28T19:31:22.423Z,2.03
2022-09-28T19:33:50.520Z,1.73
2022-09-28T19:36:24.157Z,1.52
2022-09-28T19:38:53.614Z,2.22
2022-09-28T19:41:44.421Z,2.17
2022-09-28T19:44:27.753Z,2.42
2022-09-28T19:46:56.597Z,2.08
2022-09-28T19:49:25.576Z,1.88
2022-09-28T19:52:12.317Z,1.67
2022-09-28T19:54:44.651Z,1.92
2022-09-28T19:57:14.204Z,2.15
2022-09-28T19:59:41.702Z,1.98
2022-09-28T20:02:11.443Z,2.63
2022-09-28T20:04:38.782Z,2.00
2022-09-28T20:07:06.153Z,1.73
2022-09-28T20:09:33.736Z,2.20
2022-09-28T20:12:01.288Z,2.10
2022-09-28T20:14:33.977Z,1.73
2022-09-28T20:17:01.595Z,1.85
2022-09-28T20:19:28.965Z,1.33
2022-09-28T20:21:59.557Z,1.55
2022-09-28T20:24:28.865Z,1.20
2022-09-28T20:26:56.424Z,1.45
2022-09-28T20:29:24.434Z,1.70
2022-09-28T20:31:52.136Z,1.58
2022-09-28T20:34:19.572Z,1.80
2022-09-28T20:36:46.970Z,1.55
2022-09-28T20:39:14.665Z,1.42
2022-09-28T20:41:42.058Z,1.20
2022-09-28T20:44:10.021Z,1.20
2022-09-28T20:46:38.337Z,1.60
2022-09-28T20:49:07.242Z,1.45
2022-09-28T20:51:34.992Z,1.70
2022-09-28T20:54:02.252Z,1.75
2022-09-28T20:56:34.629Z,1.77
2022-09-28T20:59:01.952Z,2.60
2022-09-28T21:01:30.687Z,2.38
2022-09-28T21:04:00.930Z,2.45
2022-09-28T21:06:33.719Z,1.95
2022-09-28T21:09:01.489Z,2.28
2022-09-28T21:11:29.882Z,1.83
2022-09-28T21:14:01.183Z,2.00
2022-09-28T21:16:31.550Z,1.85
2022-09-28T21:18:59.390Z,1.58
2022-09-28T21:21:27.693Z,1.77
2022-09-28T21:23:56.228Z,2.05
2022-09-28T21:26:31.380Z,2.08
2022-09-28T21:29:01.246Z,2.05
2022-09-28T21:31:38.489Z,1.60
2022-09-28T21:34:06.075Z,1.90
2022-09-28T21:36:33.914Z,1.50
2022-09-28T21:39:01.156Z,1.52
2022-09-28T21:41:29.214Z,2.10
2022-09-28T21:43:56.745Z,1.90
2022-09-28T21:46:24.828Z,1.60
2022-09-28T21:48:53.650Z,1.88
2022-09-28T21:51:21.477Z,1.95
2022-09-28T21:53:49.355Z,2.10
2022-09-28T21:56:16.711Z,1.88
2022-09-28T21:58:43.973Z,2.05
2022-09-28T22:01:20.007Z,2.05
2022-09-28T22:03:50.558Z,1.75
2022-09-28T22:06:20.014Z,1.85
2022-09-28T22:08:48.532Z,1.55
2022-09-28T22:11:24.973Z,2.17
2022-09-28T22:13:54.823Z,1.67
2022-09-28T22:16:25.438Z,2.03
2022-09-28T22:18:53.512Z,1.50
2022-09-28T22:21:24.640Z,1.65
2022-09-28T22:23:52.085Z,2.72
2022-09-28T22:26:24.899Z,1.95
2022-09-28T22:28:57.324Z,1.98
2022-09-28T22:31:43.315Z,1.42
2022-09-28T22:34:10.620Z,1.83
2022-09-28T22:36:37.962Z,1.98
2022-09-28T22:39:05.258Z,1.90
2022-09-28T22:41:32.479Z,1.48
2022-09-28T22:44:00.232Z,2.08
2022-09-28T22:46:29.376Z,2.25
2022-09-28T22:48:58.791Z,1.30
2022-09-28T22:51:28.143Z,2.15
2022-09-28T22:53:56.741Z,1.40
2022-09-28T22:56:24.294Z,1.70
2022-09-28T22:58:51.648Z,1.45
2022-09-28T23:01:22.057Z,1.70
2022-09-28T23:03:50.767Z,1.63
2022-09-28T23:09:04.871Z,1.65
2022-09-28T23:11:32.103Z,1.70
2022-09-28T23:14:00.431Z,1.67
2022-09-28T23:16:28.146Z,1.17
2022-09-28T23:18:55.982Z,1.75
2022-09-28T23:21:25.843Z,1.75
2022-09-28T23:23:56.248Z,1.60
2022-09-28T23:26:29.944Z,1.60
2022-09-28T23:28:57.866Z,1.73
2022-09-28T23:31:28.785Z,1.35
2022-09-28T23:34:04.471Z,1.80
2022-09-28T23:36:32.814Z,1.45
2022-09-28T23:39:00.130Z,1.58
2022-09-28T23:41:27.463Z,1.70
2022-09-28T23:43:54.759Z,1.73
2022-09-28T23:46:22.072Z,1.65
2022-09-28T23:48:49.858Z,1.48
2022-09-28T23:51:17.604Z,1.60
2022-09-28T23:53:45.146Z,1.48
2022-09-28T23:56:14.502Z,1.90
2022-09-28T23:58:41.798Z,1.63
